Independence — WDD6659 — position and weather

sailwx.info

Track history (hours):
 
Tides and Currents Weather Stations Pressure Air Temp Water Temp Dewpoint Dewpoint Depression Visibility Wind Speed Wind Dir Waves Ship Positions

Independence

Owner: Sortwell, Inc. DBA AmNav Maritime Services, Oakland, CA. More information available from US FCC via Universal Licensing System and Coast Guard Vessel Documentation Center.

Last reported at 2015-Sep-01 03:33 UTC. Time now 2015-Sep-01 06:05 UTC.
Position N 33°45' W 118°16'.

Length 24 m; draft 4.9 m.

Type: Tug. MMSI: 367175860.

Date/timePositionNaut miles runAvg speedWind from/ knotsBaromVisibWave heightAir tempDewpointWater temp
2015-Sep-01 03:33N 33°45' W 118°16'2 0.3
2015-Aug-31 22:05N 33°44' W 118°17'3 0.4
2015-Aug-31 14:21N 33°45' W 118°13'1 1.2
2015-Aug-31 13:22N 33°45' W 118°14'2 1.8
2015-Aug-31 12:15N 33°43' W 118°13'3 1.6
2015-Aug-31 10:27N 33°44' W 118°17'0 0.0
2015-Aug-31 00:17N 33°44' W 118°17'0 0.0
2015-Aug-30 23:25N 33°44' W 118°17'1 0.1
2015-Aug-30 18:31N 33°44' W 118°17'1 1.0
2015-Aug-30 17:33N 33°45' W 118°17'4 3.3
2015-Aug-30 16:16N 33°42' W 118°14'2 0.8
2015-Aug-30 13:34N 33°43' W 118°16'1 1.2
2015-Aug-30 12:33N 33°43' W 118°15'2 0.9
2015-Aug-30 10:29N 33°44' W 118°17'0 0.0
2015-Aug-30 09:04N 33°44' W 118°17'0 0.0
2015-Aug-30 03:32N 33°44' W 118°17'0 0.0
2015-Aug-30 02:33N 33°44' W 118°17'0 0.0
2015-Aug-30 01:15N 33°44' W 118°17'0 0.0
2015-Aug-30 00:26N 33°44' W 118°17'0 0.0
2015-Aug-29 23:33N 33°44' W 118°17'0 0.0
2015-Aug-29 22:30N 33°44' W 118°17'0 0.0
2015-Aug-29 21:22N 33°44' W 118°17'2 0.9
2015-Aug-29 19:33N 33°45' W 118°16'0 0.0
2015-Aug-29 18:33N 33°45' W 118°16'4 3.4
2015-Aug-29 17:32N 33°42' W 118°15'2 2.0
2015-Aug-29 16:23N 33°44' W 118°17'0 0.0
2015-Aug-29 15:24N 33°44' W 118°17'1 0.8
2015-Aug-29 14:31N 33°44' W 118°17'1 1.3
2015-Aug-29 13:25N 33°46' W 118°17'1 1.2
2015-Aug-29 12:33N 33°45' W 118°16'1 0.2
2015-Aug-29 07:30N 33°44' W 118°17'0 0.0
2015-Aug-29 06:17N 33°44' W 118°17'3 1.0
2015-Aug-29 03:33N 33°43' W 118°13'1 1.4
2015-Aug-29 02:32N 33°45' W 118°13'1 0.7
2015-Aug-29 01:33N 33°45' W 118°13'3 3.0
2015-Aug-29 00:33N 33°43' W 118°15'2 0.8
2015-Aug-28 22:26N 33°44' W 118°17'0 0.0
2015-Aug-28 21:17N 33°44' W 118°17'0 0.0
2015-Aug-28 18:23N 33°44' W 118°17'3 3.3
2015-Aug-28 17:20N 33°45' W 118°13'1 1.7
2015-Aug-28 16:32N 33°44' W 118°13'1 1.5
2015-Aug-28 15:33N 33°44' W 118°11'3 2.7
2015-Aug-28 14:18N 33°43' W 118°15'1 0.4
2015-Aug-28 11:07N 33°44' W 118°17'0 0.0
2015-Aug-28 07:19N 33°44' W 118°17'3 3.2
2015-Aug-28 06:19N 33°45' W 118°13'0 0.3
2015-Aug-28 05:33N 33°45' W 118°13'5 4.6
2015-Aug-28 04:31N 33°41' W 118°11'3 3.4
2015-Aug-28 03:32N 33°42' W 118°14'2 2.2
2015-Aug-28 02:29N 33°44' W 118°17'2 1.2
2015-Aug-28 00:32N 33°43' W 118°14'2 1.8
2015-Aug-27 23:21N 33°45' W 118°13'0 0.0
2015-Aug-27 22:20N 33°45' W 118°13'0 0.5
2015-Aug-27 21:26N 33°45' W 118°12'1 1.2
2015-Aug-27 20:29N 33°44' W 118°12'4 0.9
2015-Aug-27 16:14N 33°44' W 118°17'1 1.9
2015-Aug-27 15:33N 33°45' W 118°16'2 2.1
2015-Aug-27 14:34N 33°46' W 118°14'3 3.1
2015-Aug-27 13:33N 33°44' W 118°12'3 3.2
2015-Aug-27 12:32N 33°44' W 118°16'2 1.7
2015-Aug-27 11:33N 33°45' W 118°14'2 1.8
2015-Aug-27 10:33N 33°44' W 118°12'2 1.6
2015-Aug-27 09:33N 33°43' W 118°14'2 0.5
2015-Aug-27 04:33N 33°44' W 118°17'2 1.9
2015-Aug-27 03:34N 33°46' W 118°16'3 2.8
2015-Aug-27 02:34N 33°43' W 118°16'1 0.7
2015-Aug-27 01:04N 33°44' W 118°17'0 0.0
2015-Aug-27 00:33N 33°44' W 118°17'0 0.0
2015-Aug-26 23:33N 33°44' W 118°17'4 3.8
2015-Aug-26 22:33N 33°44' W 118°12'1 1.4
2015-Aug-26 21:34N 33°44' W 118°11'3 3.0
2015-Aug-26 20:33N 33°43' W 118°14'3 2.6
2015-Aug-26 19:33N 33°45' W 118°16'2 1.8
2015-Aug-26 18:33N 33°43' W 118°16'1 0.8
2015-Aug-26 17:31N 33°44' W 118°16'0 0.0
2015-Aug-26 16:33N 33°44' W 118°16'0 0.0
2015-Aug-26 15:26N 33°44' W 118°16'2 2.7
2015-Aug-26 14:33N 33°44' W 118°14'1 1.3
2015-Aug-26 13:33N 33°45' W 118°13'2 1.7
2015-Aug-26 12:34N 33°43' W 118°13'3 3.0
2015-Aug-26 11:33N 33°44' W 118°17'0 0.0
2015-Aug-26 10:33N 33°44' W 118°17'0 0.0
2015-Aug-26 08:16N 33°44' W 118°17'0 0.0
2015-Aug-26 07:27N 33°44' W 118°17'0 0.0
2015-Aug-26 03:33N 33°44' W 118°17'0 0.0
2015-Aug-26 02:33N 33°44' W 118°17'0 0.0
2015-Aug-26 01:33N 33°44' W 118°17'0 0.0
2015-Aug-26 00:33N 33°44' W 118°17'0 0.0
2015-Aug-25 23:32N 33°44' W 118°17'0 0.0
2015-Aug-25 22:31N 33°44' W 118°17'0 0.0
2015-Aug-25 15:23N 33°44' W 118°17'2 1.1
2015-Aug-25 13:33N 33°43' W 118°14'2 2.2
2015-Aug-25 12:33N 33°45' W 118°13'3 0.8
2015-Aug-25 09:08N 33°44' W 118°17'0 0.0
2015-Aug-25 03:33N 33°44' W 118°17'0 0.0
2015-Aug-25 02:33N 33°44' W 118°17'0 0.0
2015-Aug-25 01:33N 33°44' W 118°17'0 0.0
2015-Aug-25 00:33N 33°44' W 118°17'2 0.2
2015-Aug-24 13:33N 33°46' W 118°16'3 2.0
2015-Aug-24 12:05N 33°43' W 118°15'2 1.8
2015-Aug-24 11:05N 33°44' W 118°17'3 0.4
2015-Aug-24 02:29N 33°45' W 118°13'3 3.1
2015-Aug-24 01:32N 33°44' W 118°17'1 1.5
2015-Aug-24 00:33N 33°45' W 118°16'2 1.6
2015-Aug-23 23:33N 33°44' W 118°17'1 0.1
2015-Aug-23 11:30N 33°44' W 118°15'2 0.3
2015-Aug-23 04:33N 33°46' W 118°16'0 0.3
2015-Aug-23 03:34N 33°46' W 118°16'4 3.3
2015-Aug-23 02:18N 33°42' W 118°13'2 2.1
2015-Aug-23 01:26N 33°43' W 118°11'2 2.1
2015-Aug-23 00:33N 33°45' W 118°12'  
Track history (hours):
 
Tides and Currents Weather Stations Pressure Air Temp Water Temp Dewpoint Dewpoint Depression Visibility Wind Speed Wind Dir Waves Ship Positions

Independence

Owner: Sortwell, Inc. DBA AmNav Maritime Services, Oakland, CA. More information available from US FCC via Universal Licensing System and Coast Guard Vessel Documentation Center.

Last reported at 2015-Sep-01 03:33 UTC. Time now 2015-Sep-01 06:05 UTC.
Position N 33°45' W 118°16'.

Length 24 m; draft 4.9 m.

Type: Tug. MMSI: 367175860.

Date/timePositionNaut miles runAvg speedWind from/ knotsBaromVisibWave heightAir tempDewpointWater temp
2015-Sep-01 03:33N 33°45' W 118°16'2 0.3
2015-Aug-31 22:05N 33°44' W 118°17'3 0.4
2015-Aug-31 14:21N 33°45' W 118°13'1 1.2
2015-Aug-31 13:22N 33°45' W 118°14'2 1.8
2015-Aug-31 12:15N 33°43' W 118°13'3 1.6
2015-Aug-31 10:27N 33°44' W 118°17'0 0.0
2015-Aug-31 00:17N 33°44' W 118°17'0 0.0
2015-Aug-30 23:25N 33°44' W 118°17'1 0.1
2015-Aug-30 18:31N 33°44' W 118°17'1 1.0
2015-Aug-30 17:33N 33°45' W 118°17'4 3.3
2015-Aug-30 16:16N 33°42' W 118°14'2 0.8
2015-Aug-30 13:34N 33°43' W 118°16'1 1.2
2015-Aug-30 12:33N 33°43' W 118°15'2 0.9
2015-Aug-30 10:29N 33°44' W 118°17'0 0.0
2015-Aug-30 09:04N 33°44' W 118°17'0 0.0
2015-Aug-30 03:32N 33°44' W 118°17'0 0.0
2015-Aug-30 02:33N 33°44' W 118°17'0 0.0
2015-Aug-30 01:15N 33°44' W 118°17'0 0.0
2015-Aug-30 00:26N 33°44' W 118°17'0 0.0
2015-Aug-29 23:33N 33°44' W 118°17'0 0.0
2015-Aug-29 22:30N 33°44' W 118°17'0 0.0
2015-Aug-29 21:22N 33°44' W 118°17'2 0.9
2015-Aug-29 19:33N 33°45' W 118°16'0 0.0
2015-Aug-29 18:33N 33°45' W 118°16'4 3.4
2015-Aug-29 17:32N 33°42' W 118°15'2 2.0
2015-Aug-29 16:23N 33°44' W 118°17'0 0.0
2015-Aug-29 15:24N 33°44' W 118°17'1 0.8
2015-Aug-29 14:31N 33°44' W 118°17'1 1.3
2015-Aug-29 13:25N 33°46' W 118°17'1 1.2
2015-Aug-29 12:33N 33°45' W 118°16'1 0.2
2015-Aug-29 07:30N 33°44' W 118°17'0 0.0
2015-Aug-29 06:17N 33°44' W 118°17'3 1.0
2015-Aug-29 03:33N 33°43' W 118°13'1 1.4
2015-Aug-29 02:32N 33°45' W 118°13'1 0.7
2015-Aug-29 01:33N 33°45' W 118°13'3 3.0
2015-Aug-29 00:33N 33°43' W 118°15'2 0.8
2015-Aug-28 22:26N 33°44' W 118°17'0 0.0
2015-Aug-28 21:17N 33°44' W 118°17'0 0.0
2015-Aug-28 18:23N 33°44' W 118°17'3 3.3
2015-Aug-28 17:20N 33°45' W 118°13'1 1.7
2015-Aug-28 16:32N 33°44' W 118°13'1 1.5
2015-Aug-28 15:33N 33°44' W 118°11'3 2.7
2015-Aug-28 14:18N 33°43' W 118°15'1 0.4
2015-Aug-28 11:07N 33°44' W 118°17'0 0.0
2015-Aug-28 07:19N 33°44' W 118°17'3 3.2
2015-Aug-28 06:19N 33°45' W 118°13'0 0.3
2015-Aug-28 05:33N 33°45' W 118°13'5 4.6
2015-Aug-28 04:31N 33°41' W 118°11'3 3.4
2015-Aug-28 03:32N 33°42' W 118°14'2 2.2
2015-Aug-28 02:29N 33°44' W 118°17'2 1.2
2015-Aug-28 00:32N 33°43' W 118°14'2 1.8
2015-Aug-27 23:21N 33°45' W 118°13'0 0.0
2015-Aug-27 22:20N 33°45' W 118°13'0 0.5
2015-Aug-27 21:26N 33°45' W 118°12'1 1.2
2015-Aug-27 20:29N 33°44' W 118°12'4 0.9
2015-Aug-27 16:14N 33°44' W 118°17'1 1.9
2015-Aug-27 15:33N 33°45' W 118°16'2 2.1
2015-Aug-27 14:34N 33°46' W 118°14'3 3.1
2015-Aug-27 13:33N 33°44' W 118°12'3 3.2
2015-Aug-27 12:32N 33°44' W 118°16'2 1.7
2015-Aug-27 11:33N 33°45' W 118°14'2 1.8
2015-Aug-27 10:33N 33°44' W 118°12'2 1.6
2015-Aug-27 09:33N 33°43' W 118°14'2 0.5
2015-Aug-27 04:33N 33°44' W 118°17'2 1.9
2015-Aug-27 03:34N 33°46' W 118°16'3 2.8
2015-Aug-27 02:34N 33°43' W 118°16'1 0.7
2015-Aug-27 01:04N 33°44' W 118°17'0 0.0
2015-Aug-27 00:33N 33°44' W 118°17'0 0.0
2015-Aug-26 23:33N 33°44' W 118°17'4 3.8
2015-Aug-26 22:33N 33°44' W 118°12'1 1.4
2015-Aug-26 21:34N 33°44' W 118°11'3 3.0
2015-Aug-26 20:33N 33°43' W 118°14'3 2.6
2015-Aug-26 19:33N 33°45' W 118°16'2 1.8
2015-Aug-26 18:33N 33°43' W 118°16'1 0.8
2015-Aug-26 17:31N 33°44' W 118°16'0 0.0
2015-Aug-26 16:33N 33°44' W 118°16'0 0.0
2015-Aug-26 15:26N 33°44' W 118°16'2 2.7
2015-Aug-26 14:33N 33°44' W 118°14'1 1.3
2015-Aug-26 13:33N 33°45' W 118°13'2 1.7
2015-Aug-26 12:34N 33°43' W 118°13'3 3.0
2015-Aug-26 11:33N 33°44' W 118°17'0 0.0
2015-Aug-26 10:33N 33°44' W 118°17'0 0.0
2015-Aug-26 08:16N 33°44' W 118°17'0 0.0
2015-Aug-26 07:27N 33°44' W 118°17'0 0.0
2015-Aug-26 03:33N 33°44' W 118°17'0 0.0
2015-Aug-26 02:33N 33°44' W 118°17'0 0.0
2015-Aug-26 01:33N 33°44' W 118°17'0 0.0
2015-Aug-26 00:33N 33°44' W 118°17'0 0.0
2015-Aug-25 23:32N 33°44' W 118°17'0 0.0
2015-Aug-25 22:31N 33°44' W 118°17'0 0.0
2015-Aug-25 15:23N 33°44' W 118°17'2 1.1
2015-Aug-25 13:33N 33°43' W 118°14'2 2.2
2015-Aug-25 12:33N 33°45' W 118°13'3 0.8
2015-Aug-25 09:08N 33°44' W 118°17'0 0.0
2015-Aug-25 03:33N 33°44' W 118°17'0 0.0
2015-Aug-25 02:33N 33°44' W 118°17'0 0.0
2015-Aug-25 01:33N 33°44' W 118°17'0 0.0
2015-Aug-25 00:33N 33°44' W 118°17'2 0.2
2015-Aug-24 13:33N 33°46' W 118°16'3 2.0
2015-Aug-24 12:05N 33°43' W 118°15'2 1.8
2015-Aug-24 11:05N 33°44' W 118°17'3 0.4
2015-Aug-24 02:29N 33°45' W 118°13'3 3.1
2015-Aug-24 01:32N 33°44' W 118°17'1 1.5
2015-Aug-24 00:33N 33°45' W 118°16'2 1.6
2015-Aug-23 23:33N 33°44' W 118°17'1 0.1
2015-Aug-23 11:30N 33°44' W 118°15'2 0.3
2015-Aug-23 04:33N 33°46' W 118°16'0 0.3
2015-Aug-23 03:34N 33°46' W 118°16'4 3.3
2015-Aug-23 02:18N 33°42' W 118°13'2 2.1
2015-Aug-23 01:26N 33°43' W 118°11'2 2.1
2015-Aug-23 00:33N 33°45' W 118°12'  

Dump ship's entire track history